Ely, NV

6:34 PM PDT on May 28, 2015 (GMT -0700)
Eureka | | Change Station
CLOSE
Current Station
Airport
Location: Eureka,
Elevation: 5945 ft
Nearby Weather Stations

Elev 5945 ft 39.60 °N, 116.01 °W | Updated 41 minutes ago

Overcast
Overcast
72 °F
Feels Like 72 °F
N
13
Wind Variable Wind from NNE
Gusts mph

Today
High -- | Low -- °F
--% Chance of Precip.
Yesterday
High -- | Low -- °F
Precip. -- in
5:16 AM 7:57 PM
Waxing Gibbous, 80% visible
Pressure 29.93 in
Visibility -9999.0 miles
Clouds
Dew Point 36 °F
Humidity 27%
Rainfall 0.00 in
Snow Depth Not available.
UV Not available.
Pollen 6.20 out of 12
Air Quality Not available.
Flu Activity Sporadic
METAR KP68 290053Z AUTO 02011KT 22/02 A3010 RMK AO1 SLP135 T02220022

More Conditions Fewer Conditions

Pressure 29.93 in
Visibility -9999.0 miles
Clouds
Dew Point 36 °F
Humidity 27%
Rainfall 0.00 in
Snow Depth Not available.
UV Not available.
Pollen 6.20 out of 12
Air Quality Not available.
Flu Activity Sporadic
METAR KP68 290053Z AUTO 02011KT 22/02 A3010 RMK AO1 SLP135 T02220022

More Conditions Fewer Conditions

10-Day Weather Forecast

Almanac

Astronomy

May. 28, 2015 Rise Set
Actual Time
Civil Twilight
Nautical Twilight
Astronomical Twilight
Moon
Length of Visible Light
Length of Day
Tomorrow will be .
, % of the Moon is Illuminated

Today's Extremes

State Highs State Lows

Community

WunderPhotos

Upload Photos

1,825,111 photos uploaded!

WunderBlogs® & News

Nearby

Air Quality

  Air Quality AQ Index Pollutant
Not available.

Snow Depth

Station Depth Elevation

Earthquake Activity

City Distance Mag. Time & Date
Minimum magnitude displayed is 2.5.

Coastal Water Temperatures

Place Temperature

Stations

Nearby Weather Stations

Station Location Temp. Windchill Dew Point Humidity Wind Precip. Elev Updated Type